createdAt,value
2023-05-10T00:00:29.269Z,99879.25
2023-05-10T00:05:30.019Z,99874.16
2023-05-10T00:10:32.033Z,99872.47
2023-05-10T00:15:32.753Z,99874.16
2023-05-10T00:20:33.445Z,99870.59
2023-05-10T00:25:35.525Z,99870.59
2023-05-10T00:30:36.163Z,99875.19
2023-05-10T00:35:37.030Z,99868.25
2023-05-10T00:40:39.110Z,99862.53
2023-05-10T00:45:45.725Z,99850.59
2023-05-10T00:50:46.836Z,99854.00
2023-05-10T00:55:48.940Z,99852.47
2023-05-10T01:00:50.278Z,99847.63
2023-05-10T01:05:51.477Z,99851.28
2023-05-10T01:10:53.872Z,99842.84
2023-05-10T01:15:54.807Z,99857.72
2023-05-10T01:21:06.493Z,99852.97
2023-05-10T01:26:27.150Z,99853.00
2023-05-10T01:31:42.744Z,99848.75
2023-05-10T01:36:50.153Z,99847.13
2023-05-10T01:41:56.900Z,99840.19
2023-05-10T01:47:03.617Z,99843.00
2023-05-10T01:52:12.813Z,99842.56
2023-05-10T01:57:16.346Z,99843.72
2023-05-10T02:02:17.536Z,99837.31
2023-05-10T02:07:22.122Z,99831.69
2023-05-10T02:12:24.308Z,99835.19
2023-05-10T02:17:27.038Z,99832.06
2023-05-10T02:22:30.161Z,99836.47
2023-05-10T02:27:32.413Z,99825.22
2023-05-10T02:32:33.529Z,99824.47
2023-05-10T02:37:37.744Z,99831.56
2023-05-10T02:42:40.724Z,99827.13
2023-05-10T02:47:41.550Z,99832.38
2023-05-10T02:52:48.713Z,99826.28
2023-05-10T02:57:54.585Z,99832.38
2023-05-10T03:02:55.769Z,99830.00
2023-05-10T03:07:58.770Z,99835.22
2023-05-10T03:13:09.597Z,99830.91
2023-05-10T03:18:14.039Z,99833.72
2023-05-10T03:23:25.283Z,99836.34
2023-05-10T03:28:27.836Z,99824.19
2023-05-10T03:33:28.693Z,99833.72
2023-05-10T03:38:30.857Z,99836.31
2023-05-10T03:43:31.766Z,99828.66
2023-05-10T03:48:32.552Z,99825.06
2023-05-10T03:53:34.686Z,99832.00
2023-05-10T03:58:35.420Z,99833.66
2023-05-10T04:03:37.449Z,99848.28
2023-05-10T04:08:40.470Z,99837.94
2023-05-10T04:13:41.373Z,99835.50
2023-05-10T04:18:42.077Z,99842.66
2023-05-10T04:23:44.115Z,99830.59
2023-05-10T04:28:44.839Z,99838.25
2023-05-10T04:33:45.607Z,99835.19
2023-05-10T04:38:47.738Z,99847.00
2023-05-10T04:43:50.057Z,99834.25
2023-05-10T04:48:50.760Z,99821.88
2023-05-10T04:54:05.151Z,99828.91
2023-05-10T04:59:06.959Z,99820.72
2023-05-10T05:04:07.825Z,99810.97
2023-05-10T05:09:11.161Z,99814.09
2023-05-10T05:14:11.872Z,99816.50
2023-05-10T05:19:12.638Z,99811.00
2023-05-10T05:24:14.663Z,99819.19
2023-05-10T05:29:15.419Z,99814.38
2023-05-10T05:34:16.141Z,99820.19
2023-05-10T05:39:18.233Z,99812.75
2023-05-10T05:44:18.907Z,99820.13
2023-05-10T05:49:19.555Z,99810.00
2023-05-10T05:54:21.559Z,99818.00
2023-05-10T05:59:22.262Z,99812.34
2023-05-10T06:04:23.253Z,99813.34
2023-05-10T06:09:25.821Z,99820.81
2023-05-10T06:14:26.566Z,99830.44
2023-05-10T06:19:27.490Z,99817.72
2023-05-10T06:24:29.558Z,99828.00
2023-05-10T06:29:30.325Z,99832.59
2023-05-10T06:34:31.191Z,99832.41
2023-05-10T06:39:33.822Z,99830.72
2023-05-10T06:44:34.616Z,99825.47
2023-05-10T06:49:35.310Z,99827.63
2023-05-10T06:54:37.382Z,99836.34
2023-05-10T06:59:38.442Z,99833.31
2023-05-10T07:04:39.365Z,99837.38
2023-05-10T07:09:41.451Z,99827.72
2023-05-10T07:14:42.223Z,99827.78
2023-05-10T07:19:42.922Z,99831.88
2023-05-10T07:24:45.267Z,99834.28
2023-05-10T07:29:47.134Z,99829.44
2023-05-10T07:34:47.898Z,99827.31
2023-05-10T07:39:49.996Z,99836.72
2023-05-10T07:44:50.675Z,99828.13
2023-05-10T07:49:51.365Z,99826.53
2023-05-10T07:54:53.389Z,99827.47
2023-05-10T07:59:54.076Z,99829.38
2023-05-10T08:04:54.772Z,99826.28
2023-05-10T08:09:56.885Z,99826.91
2023-05-10T08:14:58.058Z,99820.09
2023-05-10T08:19:58.794Z,99819.44
2023-05-10T08:25:00.782Z,99815.19
2023-05-10T08:30:01.663Z,99828.72
2023-05-10T08:35:02.929Z,99828.72
2023-05-10T08:40:05.555Z,99827.63
2023-05-10T08:45:09.035Z,99841.00
2023-05-10T08:50:10.580Z,99837.91
2023-05-10T08:55:12.599Z,99846.34
2023-05-10T09:00:15.361Z,99850.66
2023-05-10T09:05:17.362Z,99859.41
2023-05-10T09:10:20.104Z,99859.69
2023-05-10T09:15:21.200Z,99856.81
2023-05-10T09:20:22.383Z,99859.03
2023-05-10T09:25:24.564Z,99858.88
2023-05-10T09:30:27.528Z,99855.28
2023-05-10T09:35:30.224Z,99861.09
2023-05-10T09:40:33.485Z,99865.75
2023-05-10T09:45:38.618Z,99866.13
2023-05-10T09:50:39.847Z,99858.66
2023-05-10T09:55:45.693Z,99862.53
2023-05-10T10:00:52.291Z,99870.16
2023-05-10T10:05:54.274Z,99859.78
2023-05-10T10:10:56.401Z,99846.44
2023-05-10T10:15:57.214Z,99854.22
2023-05-10T10:20:59.049Z,99845.09
2023-05-10T10:26:01.899Z,99844.28
2023-05-10T10:31:17.828Z,99835.41
2023-05-10T10:36:18.660Z,99837.66
2023-05-10T10:41:31.754Z,99847.50
2023-05-10T10:46:33.012Z,99857.59
2023-05-10T10:51:33.731Z,99860.09
2023-05-10T10:56:37.208Z,99849.19
2023-05-10T11:01:38.164Z,99845.81
2023-05-10T11:06:39.127Z,99849.91
2023-05-10T11:11:51.425Z,99847.28
2023-05-10T11:16:52.469Z,99844.47
2023-05-10T11:22:14.168Z,99844.91
2023-05-10T11:27:16.307Z,99847.41
2023-05-10T11:32:17.076Z,99844.66
2023-05-10T11:37:17.736Z,99850.81
2023-05-10T11:42:19.771Z,99847.28
2023-05-10T11:47:20.923Z,99844.97
2023-05-10T11:52:21.727Z,99848.22
2023-05-10T11:57:28.777Z,99833.25
2023-05-10T12:02:29.643Z,99850.44
2023-05-10T12:07:30.486Z,99854.00
2023-05-10T12:12:39.658Z,99852.97
2023-05-10T12:17:43.348Z,99861.28
2023-05-10T12:22:46.704Z,99853.50
2023-05-10T12:27:57.029Z,99866.09
2023-05-10T12:33:02.464Z,99862.19
2023-05-10T12:38:03.154Z,99862.72
2023-05-10T12:43:05.193Z,99858.84
2023-05-10T12:48:06.254Z,99874.88
2023-05-10T12:53:06.941Z,99854.13
2023-05-10T12:58:09.011Z,99867.69
2023-05-10T13:03:09.721Z,99876.22
2023-05-10T13:08:10.489Z,99870.91
2023-05-10T13:13:12.615Z,99877.78
2023-05-10T13:18:13.366Z,99870.03
2023-05-10T13:23:16.090Z,99864.53
2023-05-10T13:28:18.161Z,99870.59
2023-05-10T13:33:18.905Z,99859.16
2023-05-10T13:38:21.078Z,99860.19
2023-05-10T13:43:26.281Z,99860.22
2023-05-10T13:48:26.932Z,99855.22
2023-05-10T13:53:27.786Z,99856.56
2023-05-10T13:58:29.862Z,99852.63
2023-05-10T14:03:30.576Z,99862.81
2023-05-10T14:08:31.343Z,99854.03
2023-05-10T14:13:33.864Z,99857.53
2023-05-10T14:18:34.700Z,99847.00
2023-05-10T14:23:35.667Z,99847.91
2023-05-10T14:28:37.737Z,99848.34
2023-05-10T14:33:38.432Z,99849.38
2023-05-10T14:38:39.203Z,99848.63
2023-05-10T14:43:41.314Z,99839.78
2023-05-10T14:48:41.944Z,99844.19
2023-05-10T14:53:42.625Z,99849.84
2023-05-10T14:58:44.594Z,99855.25
2023-05-10T15:03:45.346Z,99858.34
2023-05-10T15:08:46.373Z,99860.56
2023-05-10T15:13:48.380Z,99880.00
2023-05-10T15:18:49.276Z,99884.38
2023-05-10T15:23:50.200Z,99884.72
2023-05-10T15:28:52.256Z,99881.47
2023-05-10T15:33:55.084Z,99899.56
2023-05-10T15:38:55.874Z,99906.34
2023-05-10T15:43:58.173Z,99892.50
2023-05-10T15:48:59.478Z,99905.69
2023-05-10T15:54:07.094Z,99902.53
2023-05-10T15:59:11.598Z,99906.38
2023-05-10T16:04:12.504Z,99908.19
2023-05-10T16:09:13.160Z,99907.91
2023-05-10T16:14:16.381Z,99914.78
2023-05-10T16:19:17.108Z,99917.97
2023-05-10T16:24:17.877Z,99926.94
2023-05-10T16:29:19.974Z,99929.69
2023-05-10T16:34:24.217Z,99931.75
2023-05-10T16:39:24.919Z,99935.03
2023-05-10T16:44:26.972Z,99940.91
2023-05-10T16:49:27.599Z,99940.50
2023-05-10T16:54:29.469Z,99950.75
2023-05-10T16:59:31.412Z,99956.97
2023-05-10T17:04:32.216Z,99955.63
2023-05-10T17:09:32.855Z,99966.91
2023-05-10T17:14:35.086Z,99970.22
2023-05-10T17:19:36.204Z,99978.91
2023-05-10T17:24:36.885Z,99985.28
2023-05-10T17:29:38.944Z,99993.19
2023-05-10T17:34:40.075Z,99988.97
2023-05-10T17:39:40.741Z,99998.03
2023-05-10T17:44:42.745Z,99996.78
2023-05-10T17:49:44.541Z,99999.50
2023-05-10T17:54:45.163Z,99996.97
2023-05-10T17:59:47.184Z,100007.22
2023-05-10T18:04:49.424Z,100007.34
2023-05-10T18:09:50.214Z,100008.66
2023-05-10T18:14:52.527Z,100015.41
2023-05-10T18:19:53.584Z,100023.19
2023-05-10T18:24:54.315Z,100030.78
2023-05-10T18:29:56.335Z,100034.88
2023-05-10T18:34:58.226Z,100038.72
2023-05-10T18:39:58.929Z,100033.75
2023-05-10T18:45:00.992Z,100047.34
2023-05-10T18:50:01.634Z,100052.03
2023-05-10T19:00:32.558Z,100064.50
2023-05-10T19:05:33.242Z,100064.75
2023-05-10T19:10:34.102Z,100059.34
2023-05-10T19:15:36.228Z,100068.38
2023-05-10T19:20:38.498Z,100070.84
2023-05-10T19:25:42.268Z,100092.16
2023-05-10T19:30:44.320Z,100076.91
2023-05-10T19:35:44.953Z,100091.31
2023-05-10T19:40:46.898Z,100094.25
2023-05-10T19:45:49.037Z,100094.13
2023-05-10T19:50:49.683Z,100094.38
2023-05-10T19:55:50.379Z,100097.63
2023-05-10T20:00:52.466Z,100098.31
2023-05-10T20:05:53.412Z,100093.31
2023-05-10T20:10:54.193Z,100102.19
2023-05-10T20:15:58.082Z,100094.81
2023-05-10T20:21:00.955Z,100104.00
2023-05-10T20:26:01.727Z,100101.28
2023-05-10T20:31:03.801Z,100106.09
2023-05-10T20:36:05.023Z,100106.28
2023-05-10T20:41:05.673Z,100100.25
2023-05-10T20:46:07.759Z,100104.94
2023-05-10T20:51:08.472Z,100104.31
2023-05-10T20:56:09.157Z,100104.38
2023-05-10T21:01:11.900Z,100109.06
2023-05-10T21:06:12.529Z,100106.00
2023-05-10T21:11:13.188Z,100104.38
2023-05-10T21:16:15.295Z,100106.66
2023-05-10T21:21:15.948Z,100115.09
2023-05-10T21:26:16.923Z,100107.41
2023-05-10T21:31:18.980Z,100111.22
2023-05-10T21:36:19.741Z,100122.38
2023-05-10T21:41:21.725Z,100118.03
2023-05-10T21:46:23.895Z,100119.72
2023-05-10T21:51:24.589Z,100123.06
2023-05-10T21:56:25.301Z,100126.25
2023-05-10T22:01:27.391Z,100122.72
2023-05-10T22:06:28.088Z,100133.88
2023-05-10T22:11:28.728Z,100138.75
2023-05-10T22:16:31.004Z,100138.50
2023-05-10T22:21:31.897Z,100146.47
2023-05-10T22:26:32.564Z,100143.19
2023-05-10T22:31:34.772Z,100143.41
2023-05-10T22:36:35.516Z,100142.44
2023-05-10T22:41:36.167Z,100139.59
2023-05-10T22:46:38.246Z,100154.56
2023-05-10T22:51:38.992Z,100149.50
2023-05-10T22:56:39.678Z,100145.28
2023-05-10T23:01:41.841Z,100147.22
2023-05-10T23:06:42.553Z,100152.56
2023-05-10T23:11:43.209Z,100150.13
2023-05-10T23:16:45.288Z,100157.31
2023-05-10T23:21:46.011Z,100154.13
2023-05-10T23:26:47.318Z,100151.69
2023-05-10T23:31:51.327Z,100159.41
2023-05-10T23:36:52.003Z,100161.38
2023-05-10T23:41:52.763Z,100160.63
2023-05-10T23:46:54.770Z,100158.72
2023-05-10T23:51:55.461Z,100151.03
2023-05-10T23:56:56.112Z,100150.66
